Etusivu
METAR-TAF:

METAR-TAF

Lentoasemat :

Arlandan kansainvälinen lentoasema

Tukholma-Arlanda, Ruotsi

Leveyspiiri: 59-39N, Pituuspiiri: 017-57E, korkeus merenpinnasta: 38 m

Tämänhetkinen sää

Tämä raportti tehtiin 39 minuuttia sitten, kello 19.20 UTC
Tuuli 5 kn lännestä
Lämpötila 1°C
Kosteus 75%
Ilmanpaine 1032 hPa
Näkyvyys 10 km tai enemmän
Hajonneita pilviä 2100 ft:n korkeudessa

METAR: ESSA 211920Z 26005KT 9999 BKN021 01/M03 Q1032 R01L/09//95 R08/09//95 R01R/09//95 NOSIG

Aika: 20:59 (19:59 UTC)

Sääennuste

Tämä raportti tehtiin 2 tuntia ja 29 minuuttia sitten, kello 17.30 UTC
Ennuste voimassa 21. päivästä klo 18 UTC - 22. päivään klo 18 UTC
Tuuli 4 kn pohjoisesta
Näkyvyys 10 km tai enemmän
Hajonneita pilviä 2000 ft:n korkeudessa
Todennäköisyys 40%
22. päivästä klo 00 UTC - 22. päivään klo 06 UTC
Näkyvyys: 2500 m
Hajonneita pilviä 600 ft:n korkeudessa
utua

TAF: ESSA 211730Z 2118/2218 36004KT 9999 BKN020 PROB40 2200/2206 2500 BR BKN006

Säähavainnot ja -ennusteet yli 4000 lentoasemalta (METAR- ja TAF-raportit).

Käytössä olevat sääasemat on merkitty karttaan keltaisilla ja punaisilla pisteillä.

Aseta hiiri pisteen päälle nähdäksesi sääaseman nimen.

Klikkaa sitten nähdäksesi säähavainnot ja -ennusteet.

Kartan vaihtaminen: klikkaa mustalla rastilla varustettuja vihreitä pisteitä, niin voit zoomata sisään; viivalla varustettua vihreää pistettä, niin voit zoomata ulos tai vihreitä nuolia, niin pääset viereisille kartoille.


METAR-TAF: